Time;durP1;ratioP1;P1;durP2;ratioP2;P2;SDS_P1;SDS_P2;PMS_P1;PMS_P2;Temp;Humidity;BMP_temperature;BMP_pressure;BME280_temperature;BME280_humidity;BME280_pressure;Samples;Min_cycle;Max_cycle;Signal;HPM_P1;HPM_P2
2022/08/14 00:01:25;;;;;;;11.93;8.90;;;;;;;23.03;54.82;101278.16;6169023;23;20558;-55
2022/08/14 00:04:01;;;;;;;14.13;9.60;;;;;;;22.85;55.01;101276.09;6132070;23;20755;-55
2022/08/14 00:06:27;;;;;;;15.88;9.57;;;;;;;22.90;54.63;101276.81;6141934;23;20005;-56
2022/08/14 00:08:52;;;;;;;11.95;9.00;;;;;;;22.96;54.77;101267.75;6111735;23;20005;-55
2022/08/14 00:11:27;;;;;;;14.60;9.60;;;;;;;22.86;55.18;101269.84;6139304;23;20012;-55
2022/08/14 00:13:53;;;;;;;10.95;9.40;;;;;;;22.89;54.64;101271.53;6132455;23;20016;-54
2022/08/14 00:16:20;;;;;;;14.45;9.25;;;;;;;22.87;55.04;101260.94;6118475;23;20337;-56
2022/08/14 00:18:46;;;;;;;14.23;9.50;;;;;;;22.87;54.70;101262.75;6126691;23;20373;-56
2022/08/14 00:21:12;;;;;;;11.23;9.68;;;;;;;22.88;54.55;101257.34;6135035;23;20083;-55
2022/08/14 00:23:42;;;;;;;13.77;9.35;;;;;;;22.82;54.24;101254.88;6105840;23;20432;-57
2022/08/14 00:26:07;;;;;;;16.70;9.95;;;;;;;22.79;54.94;101251.47;6136788;23;20341;-57
2022/08/14 00:28:46;;;;;;;12.45;8.93;;;;;;;22.77;54.67;101247.97;6140804;23;20016;-56
2022/08/14 00:31:13;;;;;;;13.38;9.50;;;;;;;22.64;55.56;101240.34;6092174;23;20083;-56
2022/08/14 00:34:03;;;;;;;13.75;9.10;;;;;;;22.69;55.09;101248.16;6139794;23;20032;-56
2022/08/14 00:36:29;;;;;;;13.93;9.95;;;;;;;22.47;56.31;101242.66;6134897;23;20009;-56
2022/08/14 00:38:55;;;;;;;13.50;9.40;;;;;;;22.54;56.79;101240.69;6132568;23;20296;-54
2022/08/14 00:41:21;;;;;;;13.48;9.93;;;;;;;22.57;56.17;101243.22;6138823;23;20012;-55
2022/08/14 00:43:46;;;;;;;14.25;10.32;;;;;;;22.46;56.76;101232.94;6131073;23;20016;-54
2022/08/14 00:46:13;;;;;;;13.80;10.80;;;;;;;22.42;56.97;101239.25;6140730;23;20012;-56
2022/08/14 00:48:39;;;;;;;15.23;11.85;;;;;;;21.92;58.66;101248.63;6126413;23;20008;-54
2022/08/14 00:51:09;;;;;;;19.30;13.88;;;;;;;22.33;57.67;101239.53;6085454;23;20009;-55
2022/08/14 00:53:44;;;;;;;19.05;14.43;;;;;;;22.21;58.60;101234.56;6108030;23;20025;-54
2022/08/14 00:56:11;;;;;;;17.75;13.38;;;;;;;22.43;57.13;101232.16;6128552;23;20575;-55
2022/08/14 00:58:37;;;;;;;18.02;14.57;;;;;;;22.45;57.24;101227.66;6130836;23;20008;-58
2022/08/14 01:01:10;;;;;;;18.52;14.43;;;;;;;22.54;56.88;101222.09;6139766;23;20095;-55
2022/08/14 01:03:38;;;;;;;15.25;13.13;;;;;;;22.57;57.02;101221.97;6114809;23;20344;-56
2022/08/14 01:06:24;;;;;;;23.48;15.38;;;;;;;22.36;57.35;101225.28;6136605;23;20009;-55
2022/08/14 01:09:05;;;;;;;16.50;13.73;;;;;;;22.47;56.74;101210.75;6132464;23;20015;-55
2022/08/14 01:11:31;;;;;;;18.27;13.75;;;;;;;22.41;56.98;101202.09;6129956;23;20013;-56
2022/08/14 01:13:59;;;;;;;18.45;14.15;;;;;;;22.48;56.22;101193.91;6141874;23;20032;-54
2022/08/14 01:16:24;;;;;;;16.65;11.98;;;;;;;22.58;55.69;101203.34;6138167;23;20058;-55
2022/08/14 01:21:38;;;;;;;16.00;11.50;;;;;;;22.76;54.76;101201.03;6145612;23;20040;-55
2022/08/14 01:24:06;;;;;;;14.40;11.32;;;;;;;22.85;54.80;101198.97;6117439;23;20357;-55
2022/08/14 01:26:34;;;;;;;14.55;11.63;;;;;;;22.78;54.61;101194.78;6137169;23;20005;-58
2022/08/14 01:29:00;;;;;;;16.23;11.95;;;;;;;22.78;54.87;101196.56;6101924;23;20074;-57
2022/08/14 01:31:28;;;;;;;14.48;10.80;;;;;;;22.77;54.73;101187.72;6109129;23;20009;-55
2022/08/14 01:33:56;;;;;;;15.65;11.70;;;;;;;22.78;54.06;101191.25;6146242;23;20013;-54
2022/08/14 01:36:35;;;;;;;14.63;10.43;;;;;;;22.73;53.72;101187.88;6137168;23;20009;-56
2022/08/14 01:39:14;;;;;;;15.98;11.10;;;;;;;22.74;54.69;101187.81;6137352;23;20099;-56
2022/08/14 01:41:43;;;;;;;14.73;10.05;;;;;;;22.78;54.54;101177.94;6105245;23;20020;-56
2022/08/14 01:44:12;;;;;;;16.50;11.55;;;;;;;22.69;54.93;101186.19;6107039;23;20088;-55
2022/08/14 01:46:45;;;;;;;13.00;10.50;;;;;;;22.68;54.63;101177.34;6138404;23;20012;-54
2022/08/14 01:49:14;;;;;;;;;;;;;;;22.71;54.85;101182.56;6139975;23;20035;-53
2022/08/14 01:51:40;;;;;;;13.00;10.00;;;;;;;22.65;54.54;101183.63;6112483;23;19908;-55
2022/08/14 01:54:12;;;;;;;14.52;10.85;;;;;;;22.59;55.08;101185.59;6132043;23;20016;-56
2022/08/14 01:56:39;;;;;;;14.30;10.95;;;;;;;22.30;56.03;101172.34;6124538;23;20429;-56
2022/08/14 01:59:18;;;;;;;12.55;10.55;;;;;;;22.43;54.82;101177.25;6101006;23;20516;-56
2022/08/14 02:01:46;;;;;;;12.55;9.98;;;;;;;22.47;55.10;101178.00;6137465;23;20075;-54
2022/08/14 02:04:14;;;;;;;13.95;10.38;;;;;;;22.41;54.95;101172.88;6100702;23;20467;-53
2022/08/14 02:06:39;;;;;;;15.75;11.32;;;;;;;22.35;54.66;101173.94;6129977;23;20005;-54
2022/08/14 02:09:06;;;;;;;15.38;10.65;;;;;;;22.34;54.76;101164.22;6142195;23;20016;-54
2022/08/14 02:11:34;;;;;;;13.63;10.00;;;;;;;22.34;54.85;101163.34;6129908;23;20417;-55
2022/08/14 02:14:03;;;;;;;16.13;11.07;;;;;;;22.22;55.54;101165.47;6144899;23;20005;-53
2022/08/14 02:16:32;;;;;;;13.75;10.70;;;;;;;22.25;55.28;101156.56;6138094;23;20012;-54
2022/08/14 02:19:00;;;;;;;15.43;11.13;;;;;;;22.22;54.91;101154.84;6100926;23;20579;-55
2022/08/14 02:21:29;;;;;;;12.55;10.15;;;;;;;22.26;54.83;101150.34;6138455;23;20051;-54
2022/08/14 02:23:55;;;;;;;11.27;9.13;;;;;;;22.26;55.07;101153.00;6137168;23;20005;-56
2022/08/14 02:26:28;;;;;;;14.95;11.00;;;;;;;22.19;55.31;101152.31;6102668;23;20028;-56
2022/08/14 02:29:13;;;;;;;14.60;10.93;;;;;;;22.09;55.60;101152.59;6142150;23;21038;-54
2022/08/14 02:31:41;;;;;;;14.93;11.23;;;;;;;22.14;55.67;101148.03;6112898;23;20341;-53
2022/08/14 02:34:17;;;;;;;15.38;10.00;;;;;;;22.20;55.06;101145.22;6115046;23;20005;-56
2022/08/14 02:36:43;;;;;;;11.60;10.20;;;;;;;22.21;55.26;101138.94;6135710;23;20027;-56
2022/08/14 02:39:10;;;;;;;13.88;10.70;;;;;;;22.17;55.36;101140.84;6131347;23;20013;-55
2022/08/14 02:41:36;;;;;;;14.70;10.30;;;;;;;22.17;55.39;101132.00;6143410;23;20088;-55
2022/08/14 02:44:06;;;;;;;12.65;9.90;;;;;;;22.13;55.62;101136.56;6140449;23;20140;-56
2022/08/14 02:46:33;;;;;;;14.82;10.68;;;;;;;22.13;55.54;101138.34;6134328;23;20063;-56
2022/08/14 02:49:00;;;;;;;12.32;9.57;;;;;;;22.13;55.67;101133.91;6142229;23;20437;-55
2022/08/14 02:51:25;;;;;;;12.32;10.38;;;;;;;22.13;55.92;101141.88;6138360;23;20045;-55
2022/08/14 02:53:53;;;;;;;13.38;10.93;;;;;;;22.00;56.20;101132.53;6142623;23;20020;-55
2022/08/14 02:56:19;;;;;;;13.60;10.68;;;;;;;21.97;56.50;101129.94;6139448;23;20082;-55
2022/08/14 02:58:49;;;;;;;13.68;10.38;;;;;;;21.98;56.13;101122.84;6123512;23;20008;-56
2022/08/14 03:01:21;;;;;;;13.25;10.57;;;;;;;21.96;55.86;101129.97;6140702;23;20024;-54
2022/08/14 03:03:48;;;;;;;13.75;10.90;;;;;;;21.89;56.37;101129.28;6136088;23;20013;-56
2022/08/14 03:06:19;;;;;;;13.15;10.85;;;;;;;21.84;56.51;101118.78;6111843;23;20352;-55
2022/08/14 03:08:45;;;;;;;15.00;11.23;;;;;;;21.74;56.94;101111.13;6105365;23;20099;-54
2022/08/14 03:11:12;;;;;;;13.43;10.23;;;;;;;21.80;56.33;101116.25;6112391;23;20080;-55
2022/08/14 03:13:40;;;;;;;14.05;10.43;;;;;;;21.81;56.64;101118.88;6137945;23;20009;-54
2022/08/14 03:16:08;;;;;;;13.38;10.82;;;;;;;21.79;56.65;101123.34;6131180;23;20009;-55
2022/08/14 03:18:40;;;;;;;14.80;11.43;;;;;;;21.76;56.64;101112.84;6138716;23;20009;-55
2022/08/14 03:21:10;;;;;;;14.32;10.73;;;;;;;21.83;56.32;101110.88;6137232;23;20073;-56
2022/08/14 03:23:35;;;;;;;15.70;11.60;;;;;;;21.79;56.62;101111.84;6127892;23;20020;-55
2022/08/14 03:26:02;;;;;;;15.95;12.35;;;;;;;21.63;57.10;101103.50;6143101;23;20330;-56
2022/08/14 03:28:29;;;;;;;14.80;11.70;;;;;;;21.68;56.84;101108.66;6125071;23;20433;-52
2022/08/14 03:30:57;;;;;;;13.80;10.98;;;;;;;21.65;56.96;101104.28;6105674;23;20375;-54
2022/08/14 03:33:23;;;;;;;12.95;11.55;;;;;;;21.67;56.49;101101.59;6112678;23;20020;-56
2022/08/14 03:35:53;;;;;;;12.45;10.88;;;;;;;21.69;56.63;101100.66;6115536;23;20452;-55
2022/08/14 03:38:18;;;;;;;13.82;11.30;;;;;;;21.70;56.47;101107.72;6141269;23;20047;-56
2022/08/14 03:40:45;;;;;;;15.57;12.13;;;;;;;21.65;56.79;101103.44;6121209;23;20013;-57
2022/08/14 03:43:12;;;;;;;16.80;12.23;;;;;;;21.61;56.84;101101.78;6129535;23;20009;-56
2022/08/14 03:45:39;;;;;;;13.20;10.23;;;;;;;21.63;56.58;101097.31;6138339;23;20013;-54
2022/08/14 03:48:18;;;;;;;16.60;12.57;;;;;;;21.56;56.75;101101.91;6135468;23;20009;-56
2022/08/14 03:50:51;;;;;;;14.43;11.13;;;;;;;21.60;56.69;101105.34;6131674;23;20306;-57
2022/08/14 03:53:18;;;;;;;12.55;11.25;;;;;;;21.61;56.97;101112.38;6108429;23;20835;-55
2022/08/14 03:55:45;;;;;;;15.93;12.05;;;;;;;21.50;56.98;101103.88;6134243;23;20093;-56
2022/08/14 03:58:11;;;;;;;14.82;11.85;;;;;;;21.48;57.42;101103.03;6139868;23;20649;-57
2022/08/14 04:00:40;;;;;;;15.65;11.43;;;;;;;21.43;57.20;101105.81;6129389;23;20044;-57
2022/08/14 04:03:08;;;;;;;14.13;11.15;;;;;;;21.47;57.13;101098.66;6145582;23;20020;-56
2022/08/14 04:05:36;;;;;;;14.50;11.60;;;;;;;21.45;56.94;101098.69;6137385;23;20036;-57
2022/08/14 04:08:02;;;;;;;16.52;12.18;;;;;;;21.32;57.88;101089.34;6143559;23;20005;-56
2022/08/14 04:10:28;;;;;;;15.95;11.80;;;;;;;21.37;57.47;101098.91;6131700;23;20383;-54
2022/08/14 04:12:58;;;;;;;15.70;12.27;;;;;;;21.34;57.57;101088.41;6130764;23;20548;-56
2022/08/14 04:15:25;;;;;;;15.80;11.50;;;;;;;21.34;57.84;101087.53;6130923;23;20243;-54
2022/08/14 04:17:52;;;;;;;16.90;12.18;;;;;;;21.34;58.19;101087.53;6141229;23;20017;-56
2022/08/14 04:20:17;;;;;;;15.98;11.98;;;;;;;21.39;57.52;101096.22;6139851;23;20009;-55
2022/08/14 04:22:44;;;;;;;16.63;12.10;;;;;;;21.28;58.17;101090.34;6125503;23;20344;-56
2022/08/14 04:25:10;;;;;;;15.23;12.20;;;;;;;21.30;57.88;101092.00;6125939;23;20412;-56
2022/08/14 04:27:36;;;;;;;18.60;11.82;;;;;;;21.32;58.01;101090.22;6141544;23;20009;-57
2022/08/14 04:30:04;;;;;;;17.77;11.65;;;;;;;21.41;57.52;101081.09;6128134;23;20091;-57
2022/08/14 04:32:30;;;;;;;13.80;11.48;;;;;;;21.39;57.66;101082.94;6129949;23;20038;-55
2022/08/14 04:34:55;;;;;;;14.98;12.35;;;;;;;21.36;57.65;101080.38;6131768;23;20291;-55
2022/08/14 04:45:41;;;;;;;17.33;12.43;;;;;;;21.30;57.83;101070.81;6141347;23;20196;-54
2022/08/14 04:48:14;;;;;;;16.17;12.63;;;;;;;21.28;58.04;101062.03;6140488;23;20016;-55
2022/08/14 04:50:48;;;;;;;16.08;13.15;;;;;;;21.35;57.64;101062.72;6122582;23;20031;-54
2022/08/14 04:53:25;;;;;;;18.38;12.98;;;;;;;21.33;57.70;101070.72;6140103;23;20072;-55
2022/08/14 04:55:52;;;;;;;17.60;12.77;;;;;;;21.42;57.21;101061.63;6129452;23;20417;-55
2022/08/14 04:58:25;;;;;;;14.30;12.13;;;;;;;21.58;56.86;101059.44;6130199;23;20088;-54
2022/08/14 05:00:52;;;;;;;15.67;12.93;;;;;;;21.60;57.21;101063.75;6121318;23;20016;-57
2022/08/14 05:03:22;;;;;;;15.85;12.40;;;;;;;21.61;57.05;101065.50;6139314;23;20020;-56
2022/08/14 05:05:49;;;;;;;15.13;12.45;;;;;;;21.62;57.36;101063.72;6140501;23;20092;-57
2022/08/14 05:08:14;;;;;;;15.77;12.70;;;;;;;21.62;57.17;101055.75;6137035;23;20043;-54
2022/08/14 05:10:43;;;;;;;14.88;12.05;;;;;;;21.85;56.22;101059.47;6131165;23;20045;-55
2022/08/14 05:13:09;;;;;;;17.10;12.25;;;;;;;21.96;55.78;101055.66;6131740;23;20016;-55
2022/08/14 05:15:36;;;;;;;16.38;12.63;;;;;;;21.94;57.28;101065.44;6138796;23;20020;-56
2022/08/14 05:18:24;;;;;;;18.17;12.38;;;;;;;22.06;57.14;101057.13;6143303;23;20425;-55
2022/08/14 05:20:53;;;;;;;16.77;12.48;;;;;;;22.22;55.43;101053.06;6126057;23;20024;-56
2022/08/14 05:23:23;;;;;;;15.18;11.77;;;;;;;22.30;55.76;101053.69;6138148;23;20466;-57
2022/08/14 05:25:53;;;;;;;13.27;11.50;;;;;;;22.41;55.19;101051.56;6137262;23;20063;-55
2022/08/14 05:28:22;;;;;;;19.77;13.30;;;;;;;22.44;55.01;101047.94;6143300;23;20380;-56
2022/08/14 05:30:51;;;;;;;13.25;11.10;;;;;;;22.67;54.35;101043.59;6081966;23;20013;-56
2022/08/14 05:33:19;;;;;;;15.52;11.45;;;;;;;22.81;54.23;101047.63;6114656;23;20067;-56
2022/08/14 05:35:48;;;;;;;14.93;11.98;;;;;;;23.00;53.24;101049.56;6140023;23;20083;-56
2022/08/14 05:38:17;;;;;;;16.70;12.25;;;;;;;22.93;53.78;101048.03;6104559;23;20060;-56
2022/08/14 05:40:43;;;;;;;16.25;12.15;;;;;;;23.09;52.36;101045.72;6130237;23;20015;-56
2022/08/14 05:43:09;;;;;;;17.90;12.63;;;;;;;23.00;53.51;101043.38;6110224;23;20295;-56
2022/08/14 05:45:35;;;;;;;17.75;13.18;;;;;;;23.19;52.20;101043.59;6131853;23;20012;-55
2022/08/14 05:48:05;;;;;;;16.50;12.70;;;;;;;22.77;52.90;101041.50;6146370;23;20461;-53
2022/08/14 05:50:32;;;;;;;15.82;13.00;;;;;;;23.09;53.05;101036.88;6101629;23;20532;-56
2022/08/14 05:52:57;;;;;;;15.13;12.98;;;;;;;23.15;52.15;101037.53;6106744;23;20047;-56
2022/08/14 05:55:23;;;;;;;16.55;12.88;;;;;;;23.31;52.02;101038.69;6104711;23;20470;-55
2022/08/14 05:57:51;;;;;;;17.52;13.57;;;;;;;23.02;52.40;101037.09;6139316;23;20064;-54
2022/08/14 06:00:18;;;;;;;16.90;12.40;;;;;;;23.34;51.38;101038.59;6136397;23;20009;-55
2022/08/14 06:02:44;;;;;;;17.58;13.23;;;;;;;23.06;51.96;101045.81;6131948;23;20024;-53
2022/08/14 06:05:12;;;;;;;16.00;12.65;;;;;;;23.27;52.57;101041.53;6133773;23;20013;-55
2022/08/14 06:07:37;;;;;;;15.80;12.95;;;;;;;23.35;52.02;101045.66;6137936;23;20109;-54
2022/08/14 06:10:06;;;;;;;17.67;12.82;;;;;;;23.39;52.72;101052.59;6133452;23;20008;-55
2022/08/14 06:12:35;;;;;;;15.18;13.00;;;;;;;23.42;52.53;101044.47;6137864;23;20167;-53
2022/08/14 06:15:00;;;;;;;18.25;13.82;;;;;;;23.43;51.24;101042.69;6123929;23;20362;-56
2022/08/14 06:17:26;;;;;;;15.80;12.95;;;;;;;23.54;50.77;101045.00;6140850;23;20005;-53
2022/08/14 06:19:52;;;;;;;14.52;12.65;;;;;;;23.85;50.26;101041.09;6113019;23;20044;-52
2022/08/14 06:22:24;;;;;;;18.92;13.25;;;;;;;24.85;48.44;101033.47;6134678;23;20013;-55
2022/08/14 06:24:49;;;;;;;17.75;11.82;;;;;;;25.91;45.43;101030.50;6106214;23;20571;-55
2022/08/14 06:27:15;;;;;;;16.25;12.13;;;;;;;26.33;43.57;101030.25;6131979;23;20017;-55
2022/08/14 06:29:41;;;;;;;15.50;11.98;;;;;;;27.01;41.85;101024.09;6115754;23;20189;-54
2022/08/14 06:32:06;;;;;;;13.10;11.05;;;;;;;27.63;41.02;101027.91;6140129;23;20104;-55
2022/08/14 06:34:38;;;;;;;18.75;11.30;;;;;;;27.63;40.35;101024.38;6138407;23;20009;-55
2022/08/14 06:37:12;;;;;;;12.55;10.80;;;;;;;28.21;39.20;101030.91;6140627;23;20473;-55
2022/08/14 06:39:37;;;;;;;11.85;9.90;;;;;;;28.65;39.54;101031.00;6127082;23;20155;-55
2022/08/14 06:42:03;;;;;;;14.13;10.48;;;;;;;28.76;38.31;101034.88;6115717;23;20033;-55
2022/08/14 06:44:29;;;;;;;15.13;10.73;;;;;;;28.95;37.36;101032.84;6116049;23;20032;-55
2022/08/14 06:46:55;;;;;;;12.65;10.77;;;;;;;29.24;37.05;101031.03;6131759;23;20433;-55
2022/08/14 06:49:25;;;;;;;13.43;10.75;;;;;;;29.29;37.00;101026.25;6107796;23;20111;-54
2022/08/14 06:51:54;;;;;;;15.75;10.93;;;;;;;28.93;37.26;101027.56;6133037;23;20012;-55
2022/08/14 06:54:20;;;;;;;14.93;10.30;;;;;;;29.17;37.12;101018.94;6138234;23;20035;-54
2022/08/14 06:56:47;;;;;;;15.45;9.90;;;;;;;29.27;37.18;101010.25;6130829;23;20005;-56
2022/08/14 06:59:15;;;;;;;13.60;10.43;;;;;;;29.05;37.57;101004.47;6145597;23;20005;-55
2022/08/14 07:07:12;;;;;;;16.05;9.85;;;;;;;30.87;35.68;101008.69;6137772;23;20354;-55
2022/08/14 07:09:38;;;;;;;15.30;9.18;;;;;;;30.75;35.61;101003.28;6132506;23;20013;-55
2022/08/14 07:12:03;;;;;;;11.05;9.15;;;;;;;30.67;33.74;100995.75;6114810;23;20433;-54
2022/08/14 07:14:29;;;;;;;15.88;9.30;;;;;;;29.79;34.44;100993.53;6112689;23;20009;-55
2022/08/14 07:16:56;;;;;;;19.17;9.95;;;;;;;30.42;34.61;100992.97;6126545;23;20351;-54
2022/08/14 07:19:22;;;;;;;13.93;9.73;;;;;;;31.07;34.06;100999.28;6140091;23;20794;-55
2022/08/14 07:21:57;;;;;;;18.10;10.30;;;;;;;31.18;33.32;100999.38;6139998;23;20009;-54
2022/08/14 07:24:23;;;;;;;16.65;10.60;;;;;;;30.76;32.51;100994.25;6130771;23;20009;-54
2022/08/14 07:26:48;;;;;;;16.05;10.27;;;;;;;29.93;33.38;101000.75;6126703;23;20015;-55
2022/08/14 07:29:18;;;;;;;27.95;14.75;;;;;;;30.18;34.23;101001.72;6132393;23;20049;-51
2022/08/14 07:31:43;;;;;;;13.90;10.07;;;;;;;29.69;34.99;101001.34;6132364;23;20459;-54
2022/08/14 07:34:40;;;;;;;11.43;9.07;;;;;;;29.84;35.41;101008.41;6132817;23;20013;-53
2022/08/14 07:37:05;;;;;;;13.18;9.77;;;;;;;29.77;35.35;101004.38;6127135;23;20040;-57
2022/08/14 07:39:31;;;;;;;19.20;11.85;;;;;;;30.51;33.90;101012.06;6137689;23;20084;-53
2022/08/14 07:41:57;;;;;;;10.80;9.45;;;;;;;30.55;33.93;101004.69;6107766;23;20644;-53
2022/08/14 07:44:22;;;;;;;12.10;9.73;;;;;;;30.60;33.85;101006.09;6134951;23;20009;-54
2022/08/14 07:46:48;;;;;;;13.75;9.57;;;;;;;30.30;34.61;101000.03;6105672;23;20094;-52
2022/08/14 07:49:14;;;;;;;14.00;9.20;;;;;;;30.35;34.60;100999.72;6138168;23;20408;-52
2022/08/14 07:51:39;;;;;;;12.13;9.30;;;;;;;30.24;34.46;101006.69;6133393;23;20028;-54
2022/08/14 07:54:06;;;;;;;12.85;9.25;;;;;;;30.68;34.29;101002.00;6131987;23;20025;-56
2022/08/14 07:56:31;;;;;;;15.73;9.63;;;;;;;31.00;34.14;101001.50;6128096;23;20001;-52
2022/08/14 07:58:57;;;;;;;14.70;9.10;;;;;;;31.74;33.69;100994.47;6126807;23;20013;-53
2022/08/14 08:01:25;;;;;;;19.23;9.15;;;;;;;32.76;33.11;100984.97;6137965;23;20005;-53
2022/08/14 08:03:50;;;;;;;13.13;9.07;;;;;;;33.02;30.60;100991.91;6133028;23;20043;-53
2022/08/14 08:06:17;;;;;;;13.43;9.18;;;;;;;32.95;30.69;100985.25;6130866;23;20041;-54
2022/08/14 08:08:45;;;;;;;15.63;9.40;;;;;;;32.04;31.91;100988.66;6100819;23;20009;-49
2022/08/14 08:11:11;;;;;;;15.68;9.25;;;;;;;31.26;33.35;100997.00;6127411;23;20059;-53
2022/08/14 08:13:40;;;;;;;10.55;8.73;;;;;;;31.10;33.66;100988.28;6126877;23;20760;-49
2022/08/14 08:16:07;;;;;;;15.85;9.80;;;;;;;31.25;33.24;100984.50;6136663;23;20016;-53
2022/08/14 08:18:33;;;;;;;14.63;9.65;;;;;;;31.63;33.81;100973.69;6119083;23;20333;-54
2022/08/14 08:20:59;;;;;;;10.27;8.82;;;;;;;31.44;34.03;100971.44;6129142;23;20009;-53
2022/08/14 08:23:32;;;;;;;10.65;8.50;;;;;;;31.89;33.46;100961.00;6115703;23;20005;-54
2022/08/14 08:25:57;;;;;;;10.68;9.20;;;;;;;31.87;33.45;100962.09;6134991;23;20012;-53
2022/08/14 08:28:26;;;;;;;12.68;9.20;;;;;;;31.21;35.20;100966.84;6130914;23;20017;-47
2022/08/14 08:30:58;;;;;;;10.30;9.20;;;;;;;31.47;36.31;100975.75;6129415;23;20015;-51
2022/08/14 08:33:26;;;;;;;10.18;8.88;;;;;;;31.52;34.52;100964.66;6104313;23;20056;-51
2022/08/14 08:35:53;;;;;;;13.57;9.30;;;;;;;30.34;36.66;100980.03;6095491;23;20079;-51
2022/08/14 08:38:23;;;;;;;12.02;8.98;;;;;;;30.21;35.96;100973.75;6132291;23;20447;-49
2022/08/14 08:40:52;;;;;;;15.02;10.13;;;;;;;29.39;37.47;100971.06;6133459;23;20543;-52
2022/08/14 08:43:44;;;;;;;14.45;8.93;;;;;;;30.16;37.71;100965.13;6121058;23;20009;-53
2022/08/14 08:46:15;;;;;;;10.85;8.00;;;;;;;30.73;38.67;100957.66;6131340;23;20116;-52
2022/08/14 08:48:53;;;;;;;14.45;10.15;;;;;;;30.34;36.68;100963.91;6107018;23;20009;-54
2022/08/14 08:51:24;;;;;;;16.90;9.90;;;;;;;29.95;36.73;100962.03;6130335;23;20426;-57
2022/08/14 08:54:00;;;;;;;13.05;8.38;;;;;;;30.49;35.83;100960.22;6128705;23;20013;-54
2022/08/14 08:56:51;;;;;;;10.05;8.48;;;;;;;30.97;36.52;100955.94;6101542;23;20016;-54
2022/08/14 08:59:23;;;;;;;13.27;9.70;;;;;;;30.32;36.31;100952.38;6124925;23;20057;-52
2022/08/14 09:01:57;;;;;;;17.65;8.90;;;;;;;30.40;35.60;100951.84;6110853;23;20021;-55
2022/08/14 09:04:24;;;;;;;14.90;8.77;;;;;;;30.62;36.09;100946.75;6133671;23;20449;-52
2022/08/14 09:06:49;;;;;;;15.65;8.90;;;;;;;30.60;35.28;100949.56;6104591;23;20334;-48
2022/08/14 09:09:22;;;;;;;12.77;8.85;;;;;;;30.99;36.26;100948.59;6130481;23;20015;-54
2022/08/14 09:11:53;;;;;;;10.02;8.00;;;;;;;31.14;36.28;100948.53;6135195;23;20009;-54
2022/08/14 09:14:23;;;;;;;10.90;8.30;;;;;;;31.04;35.28;100943.78;6129881;23;20017;-52
2022/08/14 09:16:53;;;;;;;10.93;8.23;;;;;;;31.02;35.29;100947.53;6135831;23;20076;-54
2022/08/14 09:19:19;;;;;;;16.13;8.82;;;;;;;30.77;35.02;100943.00;6128923;23;20013;-51
2022/08/14 09:21:45;;;;;;;10.95;7.72;;;;;;;31.20;35.34;100945.41;6131688;23;20028;-50
2022/08/14 09:24:12;;;;;;;11.68;7.13;;;;;;;31.52;33.98;100930.47;6135565;23;20738;-54
2022/08/14 09:26:38;;;;;;;9.20;6.80;;;;;;;31.39;33.80;100938.59;6128687;23;20032;-53
2022/08/14 09:29:04;;;;;;;8.98;6.90;;;;;;;31.33;35.32;100941.72;6126136;23;20016;-53
2022/08/14 09:31:32;;;;;;;10.77;7.32;;;;;;;31.86;33.06;100936.09;6121013;23;20005;-54
2022/08/14 09:34:10;;;;;;;7.43;6.50;;;;;;;32.36;32.16;100930.47;6137487;23;20012;-55
2022/08/14 09:36:57;;;;;;;8.23;6.20;;;;;;;32.51;30.93;100914.94;6134169;23;20071;-51
2022/08/14 09:40:10;;;;;;;8.40;6.63;;;;;;;32.60;31.25;100923.19;6104297;23;20040;-53
2022/08/14 09:43:13;;;;;;;7.25;6.05;;;;;;;33.08;29.98;100914.06;6133795;23;20033;-50
2022/08/14 09:45:46;;;;;;;9.23;6.78;;;;;;;32.70;32.37;100914.38;6132578;23;20076;-52
2022/08/14 09:48:23;;;;;;;10.80;6.63;;;;;;;32.83;33.27;100916.00;6131257;23;21396;-53
2022/08/14 09:50:51;;;;;;;7.65;6.38;;;;;;;32.87;31.53;100904.00;6130456;23;20008;-53
2022/08/14 09:53:35;;;;;;;9.55;6.88;;;;;;;32.45;31.65;100905.47;6102403;23;20104;-51
2022/08/14 09:56:01;;;;;;;13.75;7.05;;;;;;;32.33;31.45;100903.72;6107231;23;20044;-57
2022/08/14 09:58:42;;;;;;;10.20;6.90;;;;;;;31.83;32.97;100899.44;6106476;23;20043;-54
2022/08/14 10:01:19;;;;;;;7.75;6.78;;;;;;;32.03;31.28;100889.84;6132951;23;20094;-57
2022/08/14 10:03:55;;;;;;;8.88;6.15;;;;;;;32.51;29.92;100888.78;6134785;23;20092;-53
2022/08/14 10:06:28;;;;;;;10.82;6.30;;;;;;;32.70;30.98;100890.09;6110372;23;20009;-55
2022/08/14 10:09:13;;;;;;;9.68;5.85;;;;;;;33.07;29.30;100879.91;6120663;23;20009;-56
2022/08/14 10:11:40;;;;;;;9.40;6.78;;;;;;;33.21;30.19;100885.09;6110863;23;20044;-53
2022/08/14 10:14:23;;;;;;;8.00;6.05;;;;;;;33.54;30.51;100881.50;6128610;23;20009;-56
2022/08/14 10:16:51;;;;;;;;;;;;;;;33.12;31.45;100883.13;6129697;23;20016;-53
2022/08/14 10:19:18;;;;;;;10.13;6.90;;;;;;;32.50;31.09;100870.91;6123938;23;19915;-57
2022/08/14 10:22:09;;;;;;;9.27;6.70;;;;;;;33.06;31.33;100868.25;6131643;23;20099;-54
2022/08/14 10:24:46;;;;;;;9.60;7.07;;;;;;;32.82;32.79;100864.81;6106033;23;20012;-55
2022/08/14 10:27:24;;;;;;;11.13;7.50;;;;;;;32.59;33.25;100874.69;6101714;23;20239;-51
2022/08/14 10:29:55;;;;;;;9.48;6.95;;;;;;;33.19;32.08;100873.56;6140104;23;20080;-54
2022/08/14 10:32:25;;;;;;;10.43;7.20;;;;;;;32.88;31.96;100867.88;6112532;23;20009;-50
2022/08/14 10:35:09;;;;;;;8.13;6.68;;;;;;;32.74;32.07;100875.38;6138586;23;20092;-55
2022/08/14 10:37:39;;;;;;;11.57;7.07;;;;;;;33.09;31.49;100862.63;6131802;23;20017;-56
2022/08/14 10:40:06;;;;;;;11.02;7.50;;;;;;;33.12;31.66;100866.91;6117491;23;20017;-56
2022/08/14 10:42:38;;;;;;;11.95;6.95;;;;;;;32.87;32.15;100860.78;6132777;23;20043;-56
2022/08/14 10:45:19;;;;;;;9.05;6.70;;;;;;;33.42;31.08;100856.34;6105257;23;20359;-55
2022/08/14 10:47:46;;;;;;;7.57;6.70;;;;;;;33.73;29.53;100851.97;6103643;23;20504;-57
2022/08/14 10:50:17;;;;;;;9.45;6.72;;;;;;;33.75;29.84;100852.69;6140843;23;20001;-58
2022/08/14 10:52:55;;;;;;;8.07;6.53;;;;;;;34.02;29.70;100850.38;6109146;23;20076;-56
2022/08/14 10:55:39;;;;;;;8.93;5.90;;;;;;;34.25;28.61;100851.13;6118082;23;20028;-57
2022/08/14 10:58:10;;;;;;;8.07;6.20;;;;;;;33.51;29.16;100844.75;6114322;23;20076;-56
2022/08/14 11:00:59;;;;;;;7.47;6.28;;;;;;;33.35;29.78;100852.41;6132001;23;20348;-56
2022/08/14 11:03:35;;;;;;;;;;;;;;;33.13;29.76;100847.00;6121653;23;20067;-55
2022/08/14 11:06:14;;;;;;;11.40;6.18;;;;;;;33.55;29.95;100848.91;6129478;23;20407;-56
2022/08/14 11:08:39;;;;;;;10.93;5.85;;;;;;;33.79;29.11;100843.34;6137247;23;20037;-56
2022/08/14 11:11:11;;;;;;;9.02;6.05;;;;;;;33.60;28.79;100849.41;6109102;23;20039;-57
2022/08/14 11:13:42;;;;;;;9.80;6.03;;;;;;;33.72;29.68;100842.16;6105694;23;20013;-56
2022/08/14 11:16:09;;;;;;;8.90;6.25;;;;;;;34.40;28.29;100833.56;6114191;23;20449;-56
2022/08/14 11:18:36;;;;;;;9.40;5.32;;;;;;;33.79;28.14;100833.38;6104340;23;20063;-58
2022/08/14 11:21:05;;;;;;;7.53;5.80;;;;;;;34.02;27.52;100839.56;6114340;23;20037;-56
2022/08/14 11:23:33;;;;;;;6.93;5.75;;;;;;;33.73;28.53;100835.75;6122271;23;20173;-57
2022/08/14 11:26:00;;;;;;;7.78;5.70;;;;;;;33.78;30.02;100834.38;6142195;23;20467;-58
2022/08/14 11:28:31;;;;;;;9.10;6.00;;;;;;;33.43;28.04;100833.72;6133535;23;20005;-56
2022/08/14 11:31:00;;;;;;;6.88;5.60;;;;;;;34.14;27.61;100834.94;6102951;23;20012;-57
2022/08/14 11:33:33;;;;;;;7.07;5.57;;;;;;;34.26;28.52;100843.88;6105251;23;20020;-55
2022/08/14 11:36:00;;;;;;;7.10;5.68;;;;;;;34.32;25.85;100836.09;6128357;23;20009;-62
2022/08/14 11:38:34;;;;;;;13.40;5.65;;;;;;;33.55;27.63;100835.38;6141443;23;20077;-55
2022/08/14 11:41:00;;;;;;;13.02;5.97;;;;;;;33.73;27.47;100841.16;6132140;23;20671;-55
2022/08/14 11:43:26;;;;;;;8.50;5.80;;;;;;;34.05;27.07;100836.56;6094450;23;20063;-54